Time;durP1;ratioP1;P1;durP2;ratioP2;P2;SDS_P1;SDS_P2;PMS_P1;PMS_P2;Temp;Humidity;BMP_temperature;BMP_pressure;BME280_temperature;BME280_humidity;BME280_pressure;Samples;Min_cycle;Max_cycle;Signal;HPM_P1;HPM_P2
2023/11/01 00:00:31;;;;;;;29.00;12.80;;;;;;;20.87;60.24;99191.92;108302;1251;72904;-65
2023/11/01 00:02:59;;;;;;;29.30;12.70;;;;;;;20.88;59.99;99190.73;108331;1257;70435;-66
2023/11/01 00:05:26;;;;;;;30.70;11.80;;;;;;;20.79;60.23;99196.48;108404;1257;70891;-65
2023/11/01 00:07:54;;;;;;;27.80;12.40;;;;;;;20.59;60.82;99193.23;108316;1251;62007;-66
2023/11/01 00:10:21;;;;;;;24.20;11.30;;;;;;;20.38;61.43;99191.65;108335;1256;59524;-67
2023/11/01 00:12:48;;;;;;;26.90;12.90;;;;;;;20.15;62.19;99192.52;108215;1251;72998;-67
2023/11/01 00:15:16;;;;;;;28.30;11.90;;;;;;;20.44;61.12;99188.38;108353;1251;69328;-66
2023/11/01 00:17:44;;;;;;;27.00;11.20;;;;;;;20.23;62.24;99187.49;108364;1255;72744;-65
2023/11/01 00:20:11;;;;;;;28.70;12.30;;;;;;;20.41;61.64;99184.95;108268;1254;61730;-66
2023/11/01 00:22:39;;;;;;;24.50;11.40;;;;;;;20.28;62.45;99184.52;108274;1251;58986;-65
2023/11/01 00:25:06;;;;;;;27.90;12.50;;;;;;;20.38;61.94;99185.65;108309;1251;72612;-66
2023/11/01 00:27:34;;;;;;;28.20;12.80;;;;;;;20.46;61.44;99187.87;108284;1251;70135;-67
2023/11/01 00:30:01;;;;;;;22.60;11.40;;;;;;;20.64;61.05;99183.72;108227;1256;72973;-66
2023/11/01 00:32:29;;;;;;;29.40;12.80;;;;;;;20.63;60.89;99179.23;108215;1253;60359;-67
2023/11/01 00:34:56;;;;;;;25.80;12.70;;;;;;;20.72;60.61;99177.45;108291;1251;59977;-66
2023/11/01 00:37:23;;;;;;;26.60;11.90;;;;;;;20.47;61.48;99177.81;108253;1256;73025;-65
2023/11/01 00:39:51;;;;;;;28.30;12.40;;;;;;;20.46;61.55;99176.10;108230;1251;68598;-65
2023/11/01 00:42:18;;;;;;;30.10;12.70;;;;;;;20.58;61.31;99171.27;108280;1256;72833;-67
2023/11/01 00:44:46;;;;;;;29.40;12.20;;;;;;;20.70;60.86;99168.76;108222;1252;60484;-67
2023/11/01 00:47:13;;;;;;;30.10;12.80;;;;;;;20.53;61.29;99166.60;108341;1251;60034;-67
2023/11/01 00:49:40;;;;;;;23.10;11.50;;;;;;;20.44;61.80;99168.64;108329;1256;71748;-66
2023/11/01 00:52:08;;;;;;;25.00;11.70;;;;;;;20.61;61.40;99170.65;108278;1251;69897;-66
2023/11/01 00:54:36;;;;;;;21.50;9.70;;;;;;;20.57;61.46;99170.10;108125;1257;72711;-66
2023/11/01 00:57:03;;;;;;;26.60;12.10;;;;;;;20.56;61.68;99162.70;108265;1251;60928;-65
2023/11/01 00:59:31;;;;;;;23.80;12.20;;;;;;;20.67;61.37;99166.17;108187;1257;59980;-66
2023/11/01 01:01:58;;;;;;;26.50;11.20;;;;;;;20.57;61.74;99165.41;108262;1256;72993;-66
2023/11/01 01:04:25;;;;;;;25.80;11.20;;;;;;;20.91;60.72;99159.63;108210;1251;70171;-66
2023/11/01 01:06:53;;;;;;;33.20;13.00;;;;;;;20.71;61.42;99162.98;108235;1254;72479;-67
2023/11/01 01:09:20;;;;;;;28.50;11.80;;;;;;;20.83;61.00;99155.73;108214;1256;61536;-66
2023/11/01 01:11:48;;;;;;;28.30;12.10;;;;;;;20.74;61.25;99154.02;108328;1254;59989;-66
2023/11/01 01:14:17;;;;;;;29.70;12.10;;;;;;;20.94;60.81;99155.39;108178;1251;71740;-66
2023/11/01 01:16:44;;;;;;;26.40;11.90;;;;;;;21.03;60.44;99153.26;108295;1257;70544;-66
2023/11/01 01:19:12;;;;;;;28.90;12.40;;;;;;;21.05;60.42;99147.52;108100;1254;72633;-66
2023/11/01 01:21:39;;;;;;;21.60;10.40;;;;;;;20.94;60.64;99150.09;108066;1254;60481;-68
2023/11/01 01:24:06;;;;;;;30.00;12.70;;;;;;;20.79;61.01;99145.94;108134;1256;59973;-66
2023/11/01 01:26:34;;;;;;;28.30;12.10;;;;;;;20.90;60.93;99146.70;108076;1259;73067;-66
2023/11/01 01:29:02;;;;;;;23.00;11.10;;;;;;;20.81;61.29;99150.95;108254;1253;70293;-67
2023/11/01 01:31:29;;;;;;;27.50;11.30;;;;;;;21.18;60.14;99152.35;108233;1254;72664;-67
2023/11/01 01:33:57;;;;;;;27.20;11.50;;;;;;;21.13;60.26;99156.64;108284;1257;61756;-67
2023/11/01 01:36:24;;;;;;;25.00;11.10;;;;;;;20.90;61.12;99155.09;108203;1251;59750;-67
2023/11/01 01:38:52;;;;;;;24.70;12.10;;;;;;;20.79;61.44;99157.86;108301;1251;73070;-65
2023/11/01 01:41:19;;;;;;;22.70;11.20;;;;;;;20.86;61.17;99154.54;108224;1252;69187;-66
2023/11/01 01:43:47;;;;;;;26.50;11.80;;;;;;;20.99;60.64;99154.21;108265;1256;72427;-65
2023/11/01 01:46:15;;;;;;;30.90;11.50;;;;;;;21.13;60.31;99155.59;108281;1251;60737;-66
2023/11/01 01:48:43;;;;;;;31.90;11.90;;;;;;;21.16;60.49;99152.73;108362;1256;59481;-67
2023/11/01 01:51:11;;;;;;;28.10;13.00;;;;;;;21.08;60.43;99149.92;108330;1251;71849;-67
2023/11/01 01:53:40;;;;;;;31.50;12.80;;;;;;;20.91;61.11;99151.01;108347;1253;70293;-67
2023/11/01 01:56:07;;;;;;;36.60;12.40;;;;;;;20.95;60.81;99151.39;108119;1252;71390;-65
2023/11/01 01:58:39;;;;;;;26.00;14.20;;;;;;;21.25;60.26;99150.13;108221;1252;61601;-67
2023/11/01 02:01:07;;;;;;;31.70;13.60;;;;;;;21.17;60.41;99152.13;108170;1252;59621;-67
2023/11/01 02:03:35;;;;;;;27.10;12.50;;;;;;;21.44;59.79;99149.52;108189;1252;73018;-68
2023/11/01 02:06:03;;;;;;;30.70;13.40;;;;;;;21.55;59.35;99141.13;108142;1254;69910;-66
2023/11/01 02:26:27;;;;;;;32.20;14.20;;;;;;;21.48;60.08;99139.63;104733;1292;600349;-64
2023/11/01 02:28:55;;;;;;;22.40;12.40;;;;;;;21.20;60.97;99138.08;107649;1257;60718;-66
2023/11/01 02:31:22;;;;;;;21.90;12.50;;;;;;;21.42;60.24;99134.02;107701;1257;58777;-66
2023/11/01 02:33:50;;;;;;;27.80;13.20;;;;;;;21.64;59.76;99140.46;107693;1260;70914;-67
2023/11/01 02:36:17;;;;;;;28.50;12.40;;;;;;;21.71;59.40;99140.59;107745;1260;68601;-66
2023/11/01 02:38:45;;;;;;;23.30;12.60;;;;;;;21.33;60.42;99137.06;107643;1261;72682;-66
2023/11/01 02:41:14;;;;;;;27.40;12.30;;;;;;;21.31;60.48;99131.63;107768;1254;220355;-66
2023/11/01 02:43:41;;;;;;;23.70;12.40;;;;;;;21.50;60.04;99127.33;107938;1258;59606;-64
2023/11/01 02:46:09;;;;;;;23.60;12.00;;;;;;;21.66;59.73;99124.34;107941;1254;71495;-66
2023/11/01 02:48:36;;;;;;;32.40;13.10;;;;;;;21.91;58.82;99119.46;107899;1257;69924;-66
2023/11/01 02:51:04;;;;;;;26.30;12.60;;;;;;;21.96;58.48;99115.09;107945;1254;72490;-65
2023/11/01 02:53:31;;;;;;;23.10;12.00;;;;;;;21.71;59.01;99117.34;107938;1260;61520;-66
2023/11/01 02:55:59;;;;;;;26.30;12.60;;;;;;;21.50;59.60;99124.25;107990;1260;60793;-66
2023/11/01 02:58:28;;;;;;;29.20;11.90;;;;;;;21.76;59.09;99120.81;107723;1260;71828;-66
2023/11/01 03:00:55;;;;;;;24.80;12.10;;;;;;;21.93;58.41;99116.20;107896;1257;70813;-66
2023/11/01 03:03:23;;;;;;;23.60;12.30;;;;;;;21.86;58.69;99122.84;107892;1260;71783;-67
2023/11/01 03:05:50;;;;;;;30.30;13.00;;;;;;;22.57;56.90;99121.43;107947;1257;60817;-67
2023/11/01 03:08:18;;;;;;;32.80;12.20;;;;;;;22.84;55.86;99111.45;107919;1257;60038;-67
2023/11/01 03:10:45;;;;;;;33.20;12.10;;;;;;;22.84;55.68;99118.23;107708;1257;73290;-67
2023/11/01 03:13:13;;;;;;;31.00;14.20;;;;;;;22.44;56.75;99112.42;107838;1257;70526;-66
2023/11/01 03:15:40;;;;;;;28.70;12.70;;;;;;;22.68;56.22;99109.02;107957;1257;71768;-67
2023/11/01 03:18:07;;;;;;;23.20;12.60;;;;;;;23.06;55.14;99106.89;107864;1257;62192;-66
2023/11/01 03:20:35;;;;;;;26.20;12.40;;;;;;;23.20;54.47;99104.66;107980;1257;59157;-68
2023/11/01 03:23:02;;;;;;;26.10;11.40;;;;;;;22.81;55.33;99102.60;107876;1257;72877;-66
2023/11/01 03:25:30;;;;;;;22.90;11.60;;;;;;;22.24;57.08;99100.09;107734;1257;69010;-64
2023/11/01 03:27:57;;;;;;;34.80;14.30;;;;;;;22.20;56.86;99096.19;107740;1257;72716;-67
2023/11/01 03:30:26;;;;;;;30.50;12.00;;;;;;;22.16;57.51;99095.02;107733;1262;62593;-66
2023/11/01 03:32:53;;;;;;;29.50;13.50;;;;;;;21.96;57.94;99087.73;107748;1257;60109;-66
2023/11/01 03:35:21;;;;;;;36.40;13.40;;;;;;;22.40;56.52;99092.42;107759;1257;73041;-66
2023/11/01 03:37:48;;;;;;;27.60;12.30;;;;;;;22.46;56.45;99087.99;107709;1257;68791;-66
2023/11/01 03:40:16;;;;;;;33.00;13.20;;;;;;;22.58;55.83;99089.11;107743;1261;71732;-65
2023/11/01 03:42:43;;;;;;;30.90;12.70;;;;;;;22.44;56.17;99090.88;107540;1257;61918;-67
2023/11/01 03:45:12;;;;;;;33.90;13.80;;;;;;;22.40;56.51;99087.70;107689;1257;60034;-66
2023/11/01 03:47:39;;;;;;;27.70;13.30;;;;;;;22.62;55.63;99083.73;107721;1257;75411;-67
2023/11/01 03:50:08;;;;;;;28.90;13.40;;;;;;;22.57;55.98;99082.64;107535;1256;70596;-66
2023/11/01 03:52:35;;;;;;;31.40;14.60;;;;;;;22.50;55.93;99085.16;107724;1260;71666;-66
2023/11/01 03:55:04;;;;;;;25.30;12.70;;;;;;;22.54;55.83;99083.79;107706;1257;60713;-67
2023/11/01 03:57:32;;;;;;;24.80;13.20;;;;;;;22.06;57.33;99081.77;107736;1257;59995;-65
2023/11/01 03:59:59;;;;;;;28.00;13.30;;;;;;;22.02;57.33;99081.05;107652;1262;72819;-65
2023/11/01 04:02:27;;;;;;;26.80;13.80;;;;;;;21.99;57.55;99081.00;107610;1257;70125;-66
2023/11/01 04:04:54;;;;;;;30.50;13.50;;;;;;;22.11;57.08;99078.17;107589;1257;71209;-66
2023/11/01 04:07:22;;;;;;;33.60;13.30;;;;;;;22.09;57.22;99075.17;107574;1258;60769;-66
2023/11/01 04:09:49;;;;;;;24.30;13.40;;;;;;;21.96;57.93;99076.95;107608;1257;62157;-66
2023/11/01 04:12:16;;;;;;;25.90;13.70;;;;;;;22.03;57.41;99077.15;107608;1258;71056;-67
2023/11/01 04:14:44;;;;;;;30.60;14.90;;;;;;;22.00;57.93;99078.36;107560;1257;69973;-66
2023/11/01 04:17:11;;;;;;;29.30;14.10;;;;;;;22.02;57.78;99076.57;107678;1258;71454;-66
2023/11/01 04:19:39;;;;;;;33.40;14.80;;;;;;;21.91;57.80;99076.62;107677;1257;61688;-67
2023/11/01 04:22:08;;;;;;;32.80;14.80;;;;;;;21.90;58.08;99077.24;107752;1258;60048;-67
2023/11/01 04:24:36;;;;;;;32.70;15.40;;;;;;;22.14;57.27;99080.55;107787;1257;73060;-67
2023/11/01 04:27:03;;;;;;;32.50;14.60;;;;;;;22.20;57.03;99080.11;107607;1257;70151;-66
2023/11/01 04:29:30;;;;;;;26.10;13.50;;;;;;;22.18;57.39;99077.98;107622;1258;71212;-66
2023/11/01 04:31:58;;;;;;;31.60;14.00;;;;;;;22.26;56.78;99080.09;107618;1257;60409;-66
2023/11/01 04:34:25;;;;;;;32.40;15.20;;;;;;;22.29;57.03;99080.08;107631;1258;59458;-66
2023/11/01 04:36:53;;;;;;;25.50;15.00;;;;;;;22.38;56.60;99075.41;107654;1257;73034;-66
2023/11/01 04:39:20;;;;;;;28.20;14.50;;;;;;;22.63;55.80;99072.17;107664;1257;70454;-66
2023/11/01 04:41:47;;;;;;;29.40;14.90;;;;;;;22.20;56.85;99065.42;107620;1257;73715;-65
2023/11/01 04:44:15;;;;;;;28.70;15.10;;;;;;;22.13;56.90;99063.71;107639;1259;60382;-66
2023/11/01 04:46:45;;;;;;;29.60;15.70;;;;;;;22.12;57.13;99060.36;107726;1257;59852;-65
2023/11/01 04:49:12;;;;;;;33.40;17.30;;;;;;;21.87;57.79;99065.06;107609;1257;73009;-66
2023/11/01 04:51:39;;;;;;;28.20;17.30;;;;;;;22.18;56.88;99068.35;107648;1257;69976;-67
2023/11/01 04:54:07;;;;;;;29.70;16.40;;;;;;;22.08;57.16;99061.51;107659;1262;72542;-66
2023/11/01 04:56:34;;;;;;;28.90;16.30;;;;;;;22.01;57.20;99064.69;107602;1257;61673;-67
2023/11/01 04:59:01;;;;;;;29.60;15.10;;;;;;;22.02;57.14;99066.05;107610;1257;61376;-65
2023/11/01 05:01:30;;;;;;;39.90;18.20;;;;;;;21.74;57.99;99067.23;107722;1256;73043;-66
2023/11/01 05:03:58;;;;;;;35.90;16.40;;;;;;;21.96;57.29;99071.44;107689;1256;69496;-66
2023/11/01 05:06:26;;;;;;;28.30;16.00;;;;;;;21.76;57.96;99073.33;107645;1257;72945;-65
2023/11/01 05:08:54;;;;;;;31.00;17.20;;;;;;;21.74;57.86;99074.53;107670;1257;61619;-67
2023/11/01 05:11:22;;;;;;;38.10;17.90;;;;;;;21.75;57.56;99072.52;107710;1257;59605;-67
2023/11/01 05:13:50;;;;;;;30.40;17.70;;;;;;;21.72;57.96;99076.44;107737;1257;71914;-67
2023/11/01 05:16:17;;;;;;;37.60;20.70;;;;;;;21.84;57.53;99073.61;107734;1256;68873;-67
2023/11/01 05:18:44;;;;;;;39.90;20.50;;;;;;;21.92;57.53;99077.52;107660;1257;72634;-68
2023/11/01 05:21:12;;;;;;;40.00;22.00;;;;;;;21.93;57.43;99078.17;107639;1259;61738;-66
2023/11/01 05:23:39;;;;;;;51.10;23.60;;;;;;;21.93;57.22;99083.15;107503;1257;59624;-66
2023/11/01 05:26:14;;;;;;;44.00;22.00;;;;;;;21.83;57.93;99090.09;107670;1258;71889;-66
2023/11/01 05:28:42;;;;;;;46.10;24.70;;;;;;;21.85;57.67;99092.45;107741;1257;69244;-66
2023/11/01 05:31:10;;;;;;;40.40;21.50;;;;;;;22.02;57.15;99097.31;107699;1257;72732;-67
2023/11/01 05:33:37;;;;;;;40.30;20.90;;;;;;;22.10;56.91;99098.11;107727;1257;60741;-65
2023/11/01 05:36:09;;;;;;;51.20;23.10;;;;;;;22.08;56.71;99101.23;107734;1256;59962;-66
2023/11/01 05:38:37;;;;;;;36.80;19.50;;;;;;;22.37;56.05;99109.47;107706;1262;73036;-66
2023/11/01 05:41:08;;;;;;;38.50;21.10;;;;;;;22.19;56.60;99103.96;107723;1259;70290;-66
2023/11/01 05:43:36;;;;;;;47.40;22.50;;;;;;;22.26;56.45;99099.38;107708;1259;72719;-66
2023/11/01 05:46:05;;;;;;;43.30;24.10;;;;;;;22.13;56.87;99103.69;107744;1262;61721;-66
2023/11/01 05:48:32;;;;;;;39.70;23.00;;;;;;;22.37;56.18;99110.61;107779;1257;59401;-67
2023/11/01 05:51:03;;;;;;;49.10;24.30;;;;;;;22.28;56.32;99115.20;107666;1257;72881;-66
2023/11/01 05:53:34;;;;;;;43.50;23.50;;;;;;;22.38;56.22;99117.29;107669;1257;69173;-66
2023/11/01 05:56:01;;;;;;;37.40;22.70;;;;;;;22.43;55.68;99118.05;107660;1256;72705;-65
2023/11/01 05:58:37;;;;;;;44.30;22.50;;;;;;;22.49;55.53;99122.13;107639;1256;61804;-67
2023/11/01 06:01:06;;;;;;;42.30;22.20;;;;;;;22.21;56.41;99123.78;107633;1258;60485;-66
2023/11/01 06:03:33;;;;;;;40.40;21.40;;;;;;;22.40;55.69;99129.06;107638;1257;73090;-67
2023/11/01 06:06:01;;;;;;;33.30;19.20;;;;;;;22.43;55.83;99119.96;107667;1257;69290;-66
2023/11/01 06:08:29;;;;;;;35.00;20.10;;;;;;;22.39;55.67;99118.25;107735;1260;73147;-66
2023/11/01 06:10:56;;;;;;;39.30;20.80;;;;;;;22.33;55.70;99114.77;107641;1257;60404;-67
2023/11/01 06:13:24;;;;;;;37.30;20.20;;;;;;;22.49;55.40;99112.60;107664;1262;60618;-66
2023/11/01 06:15:51;;;;;;;33.10;19.40;;;;;;;22.48;55.22;99107.83;107530;1257;73081;-67
2023/11/01 06:18:20;;;;;;;35.40;18.00;;;;;;;22.92;54.39;99106.04;107574;1257;69143;-66
2023/11/01 06:20:48;;;;;;;44.50;19.90;;;;;;;23.45;53.04;99104.11;107612;1262;72762;-66
2023/11/01 06:23:15;;;;;;;36.00;19.70;;;;;;;23.69;52.63;99102.34;107610;1257;62073;-67
2023/11/01 06:25:44;;;;;;;29.40;17.40;;;;;;;24.20;51.38;99100.52;107608;1257;59583;-67
2023/11/01 06:28:11;;;;;;;32.60;17.00;;;;;;;24.49;49.99;99099.14;107624;1257;73046;-67
2023/11/01 06:30:38;;;;;;;31.00;15.50;;;;;;;24.39;49.78;99106.88;107658;1257;70105;-68
2023/11/01 06:33:06;;;;;;;30.50;15.20;;;;;;;24.67;49.16;99108.68;107566;1259;71916;-67
2023/11/01 06:35:34;;;;;;;28.00;15.90;;;;;;;24.84;48.40;99105.45;107680;1257;61970;-67
2023/11/01 06:38:01;;;;;;;26.90;15.20;;;;;;;24.74;48.60;99107.52;107663;1257;60595;-67
2023/11/01 06:40:29;;;;;;;30.40;15.00;;;;;;;24.41;48.93;99113.27;107691;1257;72606;-67
2023/11/01 06:42:56;;;;;;;24.90;14.70;;;;;;;24.37;49.04;99110.26;107734;1257;68957;-67
2023/11/01 06:45:26;;;;;;;28.70;14.90;;;;;;;24.46;48.95;99106.95;107553;1258;72091;-67
2023/11/01 06:47:53;;;;;;;29.50;14.50;;;;;;;24.65;48.31;99102.96;107621;1257;61919;-67
2023/11/01 06:50:21;;;;;;;25.90;14.40;;;;;;;24.05;49.40;99106.48;107628;1257;60343;-65
2023/11/01 06:52:49;;;;;;;35.20;15.10;;;;;;;24.01;49.49;99105.33;108896;1257;72033;-68
2023/11/01 06:55:17;;;;;;;31.40;16.70;;;;;;;23.85;49.76;99100.98;108928;1257;68942;-67
2023/11/01 06:57:44;;;;;;;27.30;15.50;;;;;;;23.66;50.09;99100.67;108837;1259;72746;-67
2023/11/01 07:00:13;;;;;;;29.50;16.10;;;;;;;23.69;50.11;99103.73;108962;1257;60464;-67
2023/11/01 07:02:40;;;;;;;28.30;15.20;;;;;;;23.65;50.21;99101.44;108909;1257;60005;-67
2023/11/01 07:05:08;;;;;;;30.20;15.60;;;;;;;23.70;50.13;99102.91;109003;1257;72533;-66
2023/11/01 07:07:35;;;;;;;29.30;15.80;;;;;;;23.68;49.89;99110.27;108951;1257;70100;-67
2023/11/01 07:10:03;;;;;;;27.20;15.10;;;;;;;24.12;49.40;99114.29;108980;1256;72881;-66
2023/11/01 07:12:30;;;;;;;31.30;17.20;;;;;;;24.52;48.88;99113.17;108957;1257;61497;-66
2023/11/01 07:14:58;;;;;;;30.20;15.30;;;;;;;24.96;48.24;99109.33;108983;1257;58876;-67
2023/11/01 07:17:27;;;;;;;30.40;15.50;;;;;;;24.96;47.53;99109.21;108997;1257;71867;-67
2023/11/01 07:19:56;;;;;;;31.30;16.40;;;;;;;24.88;47.01;99119.95;109002;1257;71436;-68
2023/11/01 07:25:44;;;;;;;29.80;14.60;;;;;;;24.73;47.59;99119.77;105002;1289;600191;-67
2023/11/01 07:28:12;;;;;;;37.60;16.40;;;;;;;24.74;47.42;99117.00;107306;1267;61971;-65
2023/11/01 07:30:39;;;;;;;28.30;15.10;;;;;;;24.74;47.22;99112.89;107352;1266;59993;-66
2023/11/01 07:33:06;;;;;;;32.10;15.50;;;;;;;24.73;47.30;99110.10;107251;1267;72281;-66
2023/11/01 07:35:34;;;;;;;32.70;15.90;;;;;;;24.66;47.15;99102.25;107302;1267;70265;-66
2023/11/01 07:38:01;;;;;;;26.00;13.70;;;;;;;24.53;47.32;99103.72;107806;1258;71978;-66
2023/11/01 07:40:29;;;;;;;26.50;15.10;;;;;;;24.40;47.37;99104.36;107859;1255;127334;-65
2023/11/01 07:42:56;;;;;;;28.90;15.10;;;;;;;24.34;47.48;99106.72;107981;1254;60005;-66
2023/11/01 07:45:24;;;;;;;27.00;13.30;;;;;;;24.06;48.01;99110.27;108035;1254;72564;-65
2023/11/01 07:47:51;;;;;;;33.10;14.50;;;;;;;24.17;47.67;99110.73;107980;1254;70460;-65
2023/11/01 07:50:19;;;;;;;28.40;13.90;;;;;;;24.25;47.81;99117.52;107958;1254;72225;-65
2023/11/01 07:52:47;;;;;;;27.90;13.90;;;;;;;24.52;47.15;99118.52;107914;1256;61677;-65
2023/11/01 07:55:14;;;;;;;28.20;14.80;;;;;;;24.82;46.53;99115.49;107964;1254;59519;-67
2023/11/01 07:57:41;;;;;;;27.10;13.70;;;;;;;25.05;46.39;99114.02;108024;1254;71868;-67
2023/11/01 08:00:10;;;;;;;23.80;14.10;;;;;;;25.43;45.48;99103.27;107930;1254;71499;-66
2023/11/01 08:02:37;;;;;;;21.60;12.60;;;;;;;25.33;45.44;99105.27;107867;1256;74787;-68
2023/11/01 08:05:05;;;;;;;24.10;12.10;;;;;;;25.48;44.94;99109.64;107864;1254;61735;-66
2023/11/01 08:07:33;;;;;;;22.30;11.90;;;;;;;25.61;44.06;99112.42;107905;1260;59735;-64
2023/11/01 08:10:01;;;;;;;21.80;11.10;;;;;;;25.65;44.16;99111.58;107899;1259;73134;-67
2023/11/01 08:12:28;;;;;;;21.70;11.00;;;;;;;25.61;43.81;99117.67;107968;1254;69947;-66
2023/11/01 08:14:55;;;;;;;21.80;10.80;;;;;;;25.43;43.91;99127.48;107953;1254;74998;-67
2023/11/01 08:17:23;;;;;;;19.20;11.20;;;;;;;25.36;44.23;99135.52;107942;1254;63969;-68
2023/11/01 08:19:50;;;;;;;22.50;11.80;;;;;;;25.32;44.25;99132.87;107990;1254;62261;-67
2023/11/01 08:22:18;;;;;;;20.70;10.60;;;;;;;25.25;44.56;99129.58;108033;1260;73055;-67
2023/11/01 08:24:45;;;;;;;22.60;11.60;;;;;;;25.36;43.98;99131.58;108273;1251;69906;-66
2023/11/01 08:27:13;;;;;;;22.10;10.60;;;;;;;25.31;43.86;99146.18;108155;1254;72902;-66
2023/11/01 08:29:43;;;;;;;22.60;10.80;;;;;;;25.10;44.24;99159.48;108250;1256;61696;-67
2023/11/01 08:32:11;;;;;;;17.80;10.60;;;;;;;25.03;44.20;99167.80;108221;1251;59474;-67
2023/11/01 08:34:38;;;;;;;16.80;9.90;;;;;;;25.00;44.33;99176.71;108156;1251;73571;-66
2023/11/01 08:37:06;;;;;;;22.10;10.30;;;;;;;24.75;44.56;99175.89;108128;1251;70111;-66
2023/11/01 08:39:34;;;;;;;24.60;10.90;;;;;;;24.75;44.29;99181.84;108140;1251;74931;-66
2023/11/01 08:42:02;;;;;;;21.10;10.10;;;;;;;24.66;44.84;99186.04;108183;1253;60939;-66
2023/11/01 08:44:29;;;;;;;26.30;11.50;;;;;;;24.56;44.94;99187.48;108212;1251;59387;-66
2023/11/01 08:47:01;;;;;;;17.00;9.30;;;;;;;24.39;45.00;99184.02;108213;1251;73167;-67
2023/11/01 08:49:28;;;;;;;24.60;10.10;;;;;;;24.31;45.39;99187.23;108247;1251;69701;-66
2023/11/01 08:51:56;;;;;;;15.50;9.80;;;;;;;24.35;45.26;99188.95;108183;1254;72514;-67
2023/11/01 08:54:27;;;;;;;25.70;10.70;;;;;;;24.41;45.30;99188.48;108244;1251;62811;-66
2023/11/01 08:56:54;;;;;;;15.30;8.00;;;;;;;24.47;44.78;99182.20;108232;1251;59520;-67
2023/11/01 08:59:22;;;;;;;20.30;9.70;;;;;;;24.42;44.74;99176.64;108181;1253;73416;-65
2023/11/01 09:01:49;;;;;;;18.50;9.40;;;;;;;24.58;44.85;99167.77;108084;1254;72621;-65
2023/11/01 09:04:19;;;;;;;24.20;9.30;;;;;;;24.59;44.47;99172.12;108100;1254;72557;-66
2023/11/01 09:06:47;;;;;;;23.20;9.60;;;;;;;24.39;44.86;99179.34;108103;1257;60038;-66
2023/11/01 09:09:14;;;;;;;18.10;9.40;;;;;;;24.45;44.77;99177.34;108188;1253;60175;-66
2023/11/01 09:11:42;;;;;;;20.60;9.70;;;;;;;24.46;44.61;99188.96;108173;1254;73060;-67
2023/11/01 09:14:09;;;;;;;20.10;10.30;;;;;;;24.39;44.97;99193.69;108116;1254;69211;-67
2023/11/01 09:16:37;;;;;;;18.90;9.00;;;;;;;24.34;44.93;99193.10;108070;1254;72777;-66
2023/11/01 09:19:04;;;;;;;18.90;9.10;;;;;;;24.26;44.82;99195.80;108076;1254;62706;-67
2023/11/01 09:21:35;;;;;;;18.60;9.40;;;;;;;24.10;45.24;99197.91;108153;1254;59480;-67
2023/11/01 09:24:03;;;;;;;20.30;9.60;;;;;;;24.02;45.23;99195.88;108144;1254;71830;-66
2023/11/01 09:26:31;;;;;;;16.90;9.40;;;;;;;23.98;45.60;99200.60;108106;1254;71533;-67
2023/11/01 09:28:58;;;;;;;19.20;9.40;;;;;;;23.75;46.23;99202.77;108139;1253;73161;-68
2023/11/01 09:31:25;;;;;;;20.30;9.70;;;;;;;23.74;46.06;99203.77;108078;1254;62014;-67
2023/11/01 09:33:53;;;;;;;22.60;10.60;;;;;;;23.59;46.69;99198.81;108147;1254;59470;-66
2023/11/01 09:36:20;;;;;;;18.50;9.00;;;;;;;23.65;46.69;99195.54;108092;1254;73190;-66
2023/11/01 09:38:48;;;;;;;20.80;9.20;;;;;;;23.65;47.29;99193.20;108140;1254;70593;-65
2023/11/01 09:41:17;;;;;;;17.20;9.70;;;;;;;23.62;47.47;99195.16;108190;1254;72638;-67
2023/11/01 09:43:44;;;;;;;16.40;9.70;;;;;;;23.70;47.31;99193.98;108115;1254;61801;-67
2023/11/01 09:46:11;;;;;;;19.10;9.50;;;;;;;23.77;47.55;99189.25;108019;1259;59402;-67
2023/11/01 09:48:39;;;;;;;21.50;9.70;;;;;;;23.67;47.83;99191.16;107974;1254;74106;-67
2023/11/01 09:51:07;;;;;;;16.70;9.70;;;;;;;23.53;48.62;99189.86;108084;1254;69217;-67
2023/11/01 09:53:35;;;;;;;21.20;9.80;;;;;;;23.47;49.30;99182.45;108093;1254;72764;-67
2023/11/01 09:56:02;;;;;;;18.00;9.30;;;;;;;23.25;49.48;99177.93;108109;1257;62766;-67
2023/11/01 09:58:30;;;;;;;17.20;9.80;;;;;;;23.09;50.13;99177.23;108112;1254;62130;-67
2023/11/01 10:00:59;;;;;;;20.80;10.50;;;;;;;23.11;50.40;99175.13;108020;1254;71688;-66
2023/11/01 10:03:26;;;;;;;19.50;9.40;;;;;;;23.04;50.55;99177.23;107991;1259;68419;-67
2023/11/01 10:05:54;;;;;;;21.80;10.30;;;;;;;23.02;51.02;99175.00;108001;1254;72763;-67
2023/11/01 10:08:21;;;;;;;21.50;9.90;;;;;;;22.79;51.39;99173.20;108021;1253;60675;-66
2023/11/01 10:10:48;;;;;;;23.40;10.80;;;;;;;22.57;52.31;99171.20;108017;1254;61682;-66
2023/11/01 10:13:16;;;;;;;22.80;10.90;;;;;;;22.55;52.38;99175.15;107972;1254;74475;-67
2023/11/01 10:15:43;;;;;;;21.50;10.90;;;;;;;22.61;52.25;99171.31;108017;1259;70157;-66
2023/11/01 10:18:11;;;;;;;16.90;10.00;;;;;;;22.53;52.91;99168.89;108002;1254;71392;-66
2023/11/01 10:20:39;;;;;;;21.60;12.00;;;;;;;22.54;52.94;99169.81;108016;1254;61024;-67
2023/11/01 10:23:06;;;;;;;16.30;9.00;;;;;;;22.56;52.90;99166.44;108013;1253;62225;-67
2023/11/01 10:25:34;;;;;;;14.50;7.50;;;;;;;22.50;52.83;99167.38;108074;1254;71493;-67
2023/11/01 10:28:01;;;;;;;20.30;8.00;;;;;;;22.16;53.10;99160.59;108080;1254;69317;-67
2023/11/01 10:30:29;;;;;;;19.90;9.00;;;;;;;22.09;53.68;99162.92;108085;1254;74381;-67
2023/11/01 10:32:57;;;;;;;17.00;8.20;;;;;;;22.18;53.34;99164.95;108065;1254;62682;-66
2023/11/01 10:35:28;;;;;;;16.80;7.60;;;;;;;22.04;54.01;99164.85;108083;1254;59470;-67
2023/11/01 10:37:58;;;;;;;11.60;7.30;;;;;;;21.92;54.72;99166.22;108010;1254;75335;-66
2023/11/01 10:40:28;;;;;;;15.00;8.30;;;;;;;21.89;54.50;99159.57;108089;1254;68994;-66
2023/11/01 10:43:39;;;;;;;17.00;7.30;;;;;;;20.03;59.93;99169.61;104934;1289;600573;-66
2023/11/01 10:46:07;;;;;;;11.60;7.70;;;;;;;20.73;58.25;99165.57;107264;1266;60411;-65
2023/11/01 10:48:35;;;;;;;15.00;7.90;;;;;;;20.85;58.04;99161.48;107327;1264;61346;-66
2023/11/01 10:51:03;;;;;;;15.50;7.90;;;;;;;21.04;57.66;99160.67;107248;1263;73206;-67
2023/11/01 10:53:32;;;;;;;14.70;7.30;;;;;;;20.96;57.74;99157.86;107245;1270;70446;-67
2023/11/01 10:56:00;;;;;;;15.00;8.30;;;;;;;20.98;57.77;99162.86;107282;1264;73111;-67
2023/11/01 10:58:28;;;;;;;14.40;8.00;;;;;;;21.02;58.30;99165.66;107181;1264;191818;-66
2023/11/01 11:01:16;;;;;;;14.90;8.40;;;;;;;21.00;58.56;99168.23;107398;1263;60326;-65
2023/11/01 11:03:47;;;;;;;16.00;8.80;;;;;;;20.99;58.52;99171.16;107348;1263;71407;-67
2023/11/01 11:06:15;;;;;;;16.90;9.00;;;;;;;21.03;58.63;99166.14;107464;1263;70487;-67
2023/11/01 11:08:43;;;;;;;13.00;8.00;;;;;;;20.94;58.78;99169.98;107339;1264;71508;-68
2023/11/01 11:11:17;;;;;;;15.20;8.40;;;;;;;20.92;59.00;99170.18;107362;1264;62025;-68
2023/11/01 11:13:49;;;;;;;13.00;8.70;;;;;;;20.97;59.13;99170.64;107403;1264;59665;-66
2023/11/01 11:16:20;;;;;;;19.20;9.40;;;;;;;20.96;59.26;99176.98;107391;1263;74583;-67
2023/11/01 11:18:48;;;;;;;20.20;10.30;;;;;;;21.11;59.23;99176.89;107397;1268;71878;-68
2023/11/01 11:21:47;;;;;;;16.10;10.00;;;;;;;21.06;59.78;99176.85;107337;1266;73025;-67
2023/11/01 11:24:37;;;;;;;18.20;10.00;;;;;;;21.03;59.58;99190.54;107259;1267;60454;-66
2023/11/01 11:27:42;;;;;;;15.10;9.10;;;;;;;20.95;60.04;99195.25;107299;1265;60971;-66
2023/11/01 11:30:09;;;;;;;16.70;9.20;;;;;;;20.85;60.33;99194.25;107298;1267;74705;-67
2023/11/01 11:32:37;;;;;;;23.40;9.50;;;;;;;20.83;60.35;99195.34;107220;1265;71183;-68
2023/11/01 11:35:20;;;;;;;16.90;8.80;;;;;;;20.84;60.43;99194.89;107334;1266;72023;-67
2023/11/01 11:37:48;;;;;;;16.90;9.10;;;;;;;20.94;60.39;99199.81;107315;1265;60559;-66